createdAt,value
2018-11-28T00:00:07.788Z,33.33
2018-11-28T00:05:14.481Z,33.50
2018-11-28T00:07:41.910Z,36.03
2018-11-28T00:10:10.412Z,32.03
2018-11-28T00:12:38.261Z,27.80
2018-11-28T00:15:06.006Z,31.50
2018-11-28T00:17:34.740Z,35.10
2018-11-28T00:20:02.211Z,33.97
2018-11-28T00:22:29.634Z,36.20
2018-11-28T00:24:56.972Z,35.63
2018-11-28T00:27:24.410Z,32.67
2018-11-28T00:29:51.750Z,34.03
2018-11-28T00:32:19.118Z,33.23
2018-11-28T00:34:46.508Z,33.30
2018-11-28T00:37:13.842Z,35.00
2018-11-28T00:39:41.172Z,36.60
2018-11-28T00:42:08.922Z,30.30
2018-11-28T00:44:36.234Z,35.63
2018-11-28T00:47:03.608Z,36.73
2018-11-28T00:49:30.976Z,32.63
2018-11-28T00:51:58.353Z,32.67
2018-11-28T00:54:25.660Z,33.60
2018-11-28T00:56:53.006Z,34.80
2018-11-28T00:59:20.576Z,29.23
2018-11-28T01:01:47.898Z,30.37
2018-11-28T01:04:15.250Z,31.03
2018-11-28T01:06:42.616Z,30.20
2018-11-28T01:09:09.933Z,27.07
2018-11-28T01:11:37.280Z,34.10
2018-11-28T01:14:04.821Z,32.07
2018-11-28T01:16:32.134Z,33.00
2018-11-28T01:18:59.518Z,30.87
2018-11-28T01:21:26.859Z,34.73
2018-11-28T01:23:54.183Z,31.07
2018-11-28T01:26:21.973Z,32.73
2018-11-28T01:28:49.364Z,30.00
2018-11-28T01:31:16.882Z,30.37
2018-11-28T01:33:44.235Z,34.57
2018-11-28T01:36:11.589Z,33.53
2018-11-28T01:38:38.999Z,37.23
2018-11-28T01:41:06.389Z,33.20
2018-11-28T01:43:33.731Z,32.27
2018-11-28T01:46:01.162Z,31.27
2018-11-28T01:48:28.495Z,30.47
2018-11-28T01:50:56.365Z,31.57
2018-11-28T01:53:23.770Z,29.73
2018-11-28T01:55:51.164Z,30.27
2018-11-28T01:58:18.738Z,27.00
2018-11-28T02:00:46.122Z,31.50
2018-11-28T02:03:13.509Z,25.77
2018-11-28T02:05:40.904Z,28.17
2018-11-28T02:08:08.274Z,29.70
2018-11-28T02:10:35.624Z,29.17
2018-11-28T02:13:02.982Z,27.60
2018-11-28T02:15:30.706Z,29.23
2018-11-28T02:17:58.091Z,27.00
2018-11-28T02:20:25.437Z,36.27
2018-11-28T02:22:52.815Z,27.13
2018-11-28T02:25:20.173Z,29.73
2018-11-28T02:27:47.509Z,26.10
2018-11-28T02:30:15.237Z,30.97
2018-11-28T02:32:42.901Z,30.80
2018-11-28T02:35:10.792Z,27.63
2018-11-28T02:37:38.256Z,28.43
2018-11-28T02:40:09.804Z,26.97
2018-11-28T02:42:37.189Z,30.20
2018-11-28T02:45:06.367Z,30.23
2018-11-28T02:47:33.776Z,27.83
2018-11-28T02:50:01.283Z,27.27
2018-11-28T02:52:28.701Z,24.37
2018-11-28T02:54:56.436Z,26.10
2018-11-28T02:57:23.885Z,26.93
2018-11-28T02:59:51.204Z,28.13
2018-11-28T03:02:18.584Z,25.40
2018-11-28T03:04:45.970Z,28.07
2018-11-28T03:07:13.323Z,28.80
2018-11-28T03:09:40.846Z,28.73
2018-11-28T03:12:08.254Z,30.10
2018-11-28T03:14:35.647Z,33.77
2018-11-28T03:17:03.090Z,26.20
2018-11-28T03:19:30.503Z,35.37
2018-11-28T03:21:57.976Z,31.10
2018-11-28T03:24:25.475Z,31.73
2018-11-28T03:26:52.851Z,31.90
2018-11-28T03:29:20.252Z,30.97
2018-11-28T03:31:47.687Z,32.57
2018-11-28T03:34:15.104Z,34.10
2018-11-28T03:36:42.529Z,31.27
2018-11-28T03:39:09.880Z,33.57
2018-11-28T03:41:37.252Z,33.63
2018-11-28T03:44:05.146Z,29.27
2018-11-28T03:46:33.142Z,31.23
2018-11-28T03:49:00.626Z,29.27
2018-11-28T03:51:28.091Z,34.20
2018-11-28T03:53:55.469Z,30.40
2018-11-28T03:56:22.857Z,30.60
2018-11-28T03:58:50.226Z,27.20
2018-11-28T04:01:17.674Z,24.47
2018-11-28T04:03:45.070Z,26.57
2018-11-28T04:06:12.490Z,26.27
2018-11-28T04:08:39.852Z,26.67
2018-11-28T04:11:07.358Z,27.77
2018-11-28T04:13:34.891Z,28.27
2018-11-28T04:16:02.327Z,26.60
2018-11-28T04:18:29.780Z,29.47
2018-11-28T04:20:57.510Z,25.57
2018-11-28T04:23:25.002Z,26.13
2018-11-28T04:25:52.537Z,24.73
2018-11-28T04:28:20.056Z,22.73
2018-11-28T04:30:47.476Z,26.80
2018-11-28T04:33:14.867Z,27.90
2018-11-28T04:35:42.246Z,24.07
2018-11-28T04:38:09.610Z,26.30
2018-11-28T04:40:37.209Z,20.93
2018-11-28T04:43:04.756Z,24.40
2018-11-28T04:45:32.182Z,20.97
2018-11-28T04:47:59.604Z,21.17
2018-11-28T04:50:27.015Z,24.47
2018-11-28T04:52:54.422Z,22.03
2018-11-28T04:55:21.982Z,23.00
2018-11-28T04:57:49.517Z,20.60
2018-11-28T05:00:23.708Z,20.60
2018-11-28T05:03:01.955Z,19.10
2018-11-28T05:05:29.614Z,19.57
2018-11-28T05:07:57.355Z,20.23
2018-11-28T05:39:22.662Z,28.80
2018-11-28T05:41:50.331Z,28.43
2018-11-28T05:44:22.514Z,32.27
2018-11-28T05:46:49.941Z,29.90
2018-11-28T05:49:17.420Z,29.90
2018-11-28T05:51:44.850Z,29.53
2018-11-28T05:54:12.416Z,32.20
2018-11-28T05:56:42.488Z,33.87
2018-11-28T05:59:09.966Z,30.03
2018-11-28T06:01:37.936Z,31.10
2018-11-28T07:43:06.087Z,25.23
2018-11-28T07:45:33.465Z,25.40
2018-11-28T07:48:00.934Z,22.93
2018-11-28T07:50:29.787Z,22.60
2018-11-28T07:52:57.235Z,26.80
2018-11-28T07:55:24.653Z,24.43
2018-11-28T07:57:52.262Z,27.43
2018-11-28T08:00:19.704Z,28.17
2018-11-28T08:02:47.231Z,25.57
2018-11-28T08:05:14.618Z,28.20
2018-11-28T08:07:42.129Z,23.27
2018-11-28T08:10:10.346Z,24.90
2018-11-28T08:12:37.716Z,21.17
2018-11-28T08:15:06.216Z,19.57
2018-11-28T08:17:33.581Z,22.87
2018-11-28T08:20:00.903Z,18.90
2018-11-28T08:22:28.310Z,18.17
2018-11-28T08:24:55.665Z,19.63
2018-11-28T08:27:23.178Z,19.30
2018-11-28T08:29:50.732Z,16.83
2018-11-28T08:32:18.108Z,16.40
2018-11-28T08:34:45.448Z,19.13
2018-11-28T08:37:12.945Z,19.30
2018-11-28T08:39:40.352Z,16.97
2018-11-28T08:42:07.815Z,17.40
2018-11-28T08:44:35.207Z,14.53
2018-11-28T08:47:02.695Z,14.73
2018-11-28T08:49:30.477Z,16.67
2018-11-28T08:51:57.902Z,19.53
2018-11-28T08:54:25.250Z,19.80
2018-11-28T08:56:52.730Z,15.33
2018-11-28T08:59:20.078Z,16.90
2018-11-28T09:01:47.366Z,15.90
2018-11-28T09:04:14.884Z,15.30
2018-11-28T09:06:42.645Z,14.50
2018-11-28T09:09:10.055Z,14.70
2018-11-28T09:11:37.376Z,14.43
2018-11-28T09:14:04.775Z,15.30
2018-11-28T09:16:32.072Z,14.50
2018-11-28T09:18:59.388Z,14.97
2018-11-28T09:21:26.720Z,14.70
2018-11-28T09:23:54.054Z,14.60
2018-11-28T09:26:21.439Z,18.20
2018-11-28T09:28:48.859Z,19.90
2018-11-28T09:31:16.245Z,17.23
2018-11-28T09:33:43.767Z,18.20
2018-11-28T09:36:11.174Z,21.77
2018-11-28T09:38:38.583Z,25.20
2018-11-28T09:41:06.038Z,17.90
2018-11-28T09:43:33.458Z,20.03
2018-11-28T09:46:00.881Z,22.13
2018-11-28T09:48:28.359Z,17.13
2018-11-28T09:50:55.780Z,21.67
2018-11-28T09:53:23.072Z,18.27
2018-11-28T09:55:50.411Z,19.13
2018-11-28T09:58:17.859Z,20.47
2018-11-28T10:00:45.192Z,18.07
2018-11-28T10:03:12.576Z,16.27
2018-11-28T10:05:39.976Z,20.10
2018-11-28T10:08:07.368Z,14.43
2018-11-28T10:10:34.724Z,15.60
2018-11-28T10:13:02.056Z,18.73
2018-11-28T10:15:35.221Z,16.80
2018-11-28T10:17:57.235Z,20.10
2018-11-28T10:20:24.625Z,14.10
2018-11-28T10:22:52.414Z,15.47
2018-11-28T10:25:21.081Z,15.10
2018-11-28T10:27:49.708Z,13.33
2018-11-28T10:30:18.401Z,13.17
2018-11-28T10:32:45.841Z,12.27
2018-11-28T10:35:13.297Z,14.43
2018-11-28T10:37:40.653Z,13.37
2018-11-28T10:40:12.075Z,12.47
2018-11-28T10:42:39.394Z,13.47
2018-11-28T10:45:08.290Z,12.10
2018-11-28T10:47:35.663Z,11.73
2018-11-28T10:50:03.051Z,12.03
2018-11-28T10:52:30.423Z,12.50
2018-11-28T10:54:57.812Z,11.70
2018-11-28T10:57:25.221Z,13.00
2018-11-28T10:59:52.583Z,12.97
2018-11-28T11:02:25.333Z,14.03
2018-11-28T11:04:58.030Z,15.80
2018-11-28T11:07:30.660Z,15.30
2018-11-28T11:10:03.243Z,13.33
2018-11-28T11:12:36.083Z,13.17
2018-11-28T11:15:03.705Z,13.60
2018-11-28T11:17:31.133Z,14.47
2018-11-28T11:19:58.600Z,14.23
2018-11-28T11:22:26.047Z,12.77
2018-11-28T11:24:53.484Z,15.67
2018-11-28T11:27:20.820Z,12.90
2018-11-28T11:29:48.250Z,14.00
2018-11-28T11:32:15.666Z,17.80
2018-11-28T11:34:43.035Z,15.03
2018-11-28T11:37:10.352Z,15.90
2018-11-28T11:39:37.748Z,15.07
2018-11-28T11:42:06.006Z,16.57
2018-11-28T11:44:33.461Z,17.67
2018-11-28T11:47:00.897Z,15.27
2018-11-28T11:49:28.607Z,18.23
2018-11-28T11:51:55.994Z,18.67
2018-11-28T11:54:23.428Z,17.13
2018-11-28T11:56:50.813Z,17.17
2018-11-28T11:59:18.159Z,18.83
2018-11-28T12:01:45.594Z,18.77
2018-11-28T12:04:12.913Z,18.90
2018-11-28T12:06:40.254Z,18.50
2018-11-28T12:09:08.658Z,18.50
2018-11-28T12:11:36.302Z,18.57
2018-11-28T12:14:03.762Z,20.63
2018-11-28T12:16:31.154Z,15.23
2018-11-28T12:18:58.969Z,18.27
2018-11-28T12:21:26.290Z,17.83
2018-11-28T12:23:53.636Z,15.73
2018-11-28T12:26:21.079Z,16.97
2018-11-28T12:28:48.452Z,17.40
2018-11-28T12:31:15.781Z,16.13
2018-11-28T12:33:43.226Z,17.30
2018-11-28T12:36:10.750Z,17.70
2018-11-28T12:38:38.079Z,17.03
2018-11-28T12:41:06.439Z,19.77
2018-11-28T12:43:33.896Z,15.23
2018-11-28T12:46:01.775Z,15.73
2018-11-28T12:48:29.204Z,15.03
2018-11-28T12:50:56.591Z,14.40
2018-11-28T12:53:24.237Z,15.80
2018-11-28T12:55:51.558Z,19.27
2018-11-28T12:58:19.513Z,20.50
2018-11-28T13:00:47.335Z,20.90
2018-11-28T13:03:15.242Z,18.60
2018-11-28T13:05:42.691Z,18.47
2018-11-28T13:08:10.036Z,18.27
2018-11-28T13:10:38.084Z,20.23
2018-11-28T13:13:07.085Z,20.17
2018-11-28T13:15:34.726Z,16.70
2018-11-28T13:18:02.226Z,20.20
2018-11-28T13:20:29.605Z,17.30
2018-11-28T13:22:57.043Z,22.27
2018-11-28T13:25:24.920Z,16.97
2018-11-28T13:27:52.290Z,17.67
2018-11-28T13:30:20.894Z,20.23
2018-11-28T13:32:48.707Z,18.37
2018-11-28T13:35:19.453Z,20.23
2018-11-28T13:37:47.387Z,17.00
2018-11-28T13:40:15.291Z,20.43
2018-11-28T13:42:42.748Z,23.27
2018-11-28T13:45:10.979Z,21.23
2018-11-28T13:47:38.385Z,23.40
2018-11-28T13:50:06.487Z,21.47
2018-11-28T13:52:33.791Z,23.10
2018-11-28T13:57:28.616Z,23.70
2018-11-28T13:59:55.931Z,22.13
2018-11-28T14:02:23.310Z,21.10
2018-11-28T14:04:50.668Z,21.47
2018-11-28T14:07:18.190Z,23.13
2018-11-28T14:09:45.579Z,18.80
2018-11-28T14:12:12.921Z,23.07
2018-11-28T14:14:40.550Z,20.13
2018-11-28T14:17:07.789Z,25.63
2018-11-28T14:19:35.185Z,19.50
2018-11-28T14:22:02.509Z,20.03
2018-11-28T14:24:29.810Z,21.77
2018-11-28T14:26:57.185Z,20.73
2018-11-28T14:29:24.524Z,23.83
2018-11-28T14:31:51.863Z,22.33
2018-11-28T14:34:19.317Z,20.60
2018-11-28T14:36:46.686Z,19.63
2018-11-28T14:39:14.043Z,19.80
2018-11-28T14:41:41.363Z,21.10
2018-11-28T14:44:08.750Z,18.13
2018-11-28T14:46:36.072Z,20.60
2018-11-28T14:49:03.428Z,23.23
2018-11-28T14:51:30.825Z,21.87
2018-11-28T14:53:58.589Z,24.33
2018-11-28T14:56:25.914Z,21.63
2018-11-28T14:58:53.205Z,22.67
2018-11-28T15:01:20.576Z,21.00
2018-11-28T15:03:47.988Z,18.20
2018-11-28T15:06:21.328Z,20.93
2018-11-28T15:08:49.002Z,26.67
2018-11-28T15:11:16.407Z,24.73
2018-11-28T15:13:43.941Z,26.10
2018-11-28T15:16:11.327Z,20.97
2018-11-28T15:18:38.799Z,21.83
2018-11-28T15:21:06.747Z,23.10
2018-11-28T15:23:34.088Z,26.20
2018-11-28T15:26:01.450Z,25.13
2018-11-28T15:28:28.859Z,21.60
2018-11-28T15:30:56.243Z,21.67
2018-11-28T15:33:23.604Z,21.40
2018-11-28T15:35:51.102Z,22.77
2018-11-28T15:38:18.501Z,22.17
2018-11-28T15:40:45.853Z,22.93
2018-11-28T15:43:13.236Z,22.37
2018-11-28T15:45:41.018Z,24.50
2018-11-28T15:48:08.631Z,26.23
2018-11-28T15:50:37.608Z,22.80
2018-11-28T15:53:05.214Z,22.10
2018-11-28T15:55:32.561Z,21.80
2018-11-28T15:57:59.901Z,20.93
2018-11-28T16:00:27.297Z,26.53
2018-11-28T16:02:54.804Z,31.20
2018-11-28T16:05:22.264Z,24.67
2018-11-28T16:07:49.840Z,20.43
2018-11-28T16:10:36.987Z,32.90
2018-11-28T16:13:04.643Z,24.03
2018-11-28T16:15:33.187Z,29.63
2018-11-28T16:18:00.497Z,22.93
2018-11-28T16:20:28.070Z,25.33
2018-11-28T16:23:04.408Z,21.00
2018-11-28T16:25:22.981Z,23.17
2018-11-28T16:27:50.357Z,23.87
2018-11-28T16:30:17.787Z,26.27
2018-11-28T16:32:45.579Z,21.80
2018-11-28T16:35:14.367Z,27.80
2018-11-28T16:37:41.728Z,25.07
2018-11-28T16:40:10.254Z,25.83
2018-11-28T16:42:37.590Z,26.73
2018-11-28T16:45:06.947Z,24.47
2018-11-28T16:47:34.309Z,24.93
2018-11-28T16:50:02.527Z,27.77
2018-11-28T16:52:30.717Z,22.73
2018-11-28T16:54:58.082Z,23.43
2018-11-28T16:57:25.947Z,23.73
2018-11-28T16:59:53.399Z,22.03
2018-11-28T17:02:20.748Z,23.37
2018-11-28T17:04:48.880Z,25.70
2018-11-28T17:07:15.537Z,25.03
2018-11-28T17:09:42.882Z,24.90
2018-11-28T17:12:10.202Z,26.77
2018-11-28T17:14:38.342Z,29.80
2018-11-28T17:17:06.206Z,27.50
2018-11-28T17:19:33.676Z,29.37
2018-11-28T17:22:01.058Z,29.13
2018-11-28T17:24:28.402Z,29.80
2018-11-28T17:26:55.787Z,28.73
2018-11-28T17:29:23.177Z,26.57
2018-11-28T17:31:50.524Z,22.10
2018-11-28T17:34:17.969Z,28.37
2018-11-28T17:36:45.306Z,24.50
2018-11-28T17:39:13.651Z,26.67
2018-11-28T17:41:41.125Z,26.13
2018-11-28T17:44:08.494Z,23.40
2018-11-28T17:46:36.408Z,23.40
2018-11-28T17:49:03.787Z,27.60
2018-11-28T17:51:31.148Z,25.47
2018-11-28T17:53:58.483Z,25.80
2018-11-28T17:56:25.837Z,22.37
2018-11-28T17:58:53.291Z,21.47
2018-11-28T18:01:20.645Z,25.43
2018-11-28T18:03:48.057Z,21.10
2018-11-28T18:06:15.585Z,20.03
2018-11-28T18:08:43.051Z,22.83
2018-11-28T18:11:11.423Z,22.73
2018-11-28T18:13:39.624Z,22.73
2018-11-28T18:16:06.447Z,23.57
2018-11-28T18:18:34.098Z,26.00
2018-11-28T18:21:01.551Z,28.43
2018-11-28T18:23:29.005Z,25.80
2018-11-28T18:25:56.459Z,25.00
2018-11-28T18:28:23.986Z,25.80
2018-11-28T18:30:51.384Z,22.53
2018-11-28T18:33:18.747Z,24.40
2018-11-28T18:35:46.063Z,24.80
2018-11-28T18:38:13.520Z,23.13
2018-11-28T18:40:40.999Z,24.73
2018-11-28T18:43:08.733Z,25.73
2018-11-28T18:45:37.304Z,25.07
2018-11-28T18:48:04.838Z,22.63
2018-11-28T18:50:32.194Z,24.80
2018-11-28T18:52:59.684Z,21.67
2018-11-28T18:55:27.048Z,25.00
2018-11-28T18:57:55.178Z,23.10
2018-11-28T19:00:23.383Z,25.70
2018-11-28T19:02:51.356Z,22.07
2018-11-28T19:05:20.178Z,23.93
2018-11-28T19:07:47.595Z,21.43
2018-11-28T19:10:15.577Z,22.67
2018-11-28T19:12:42.874Z,24.23
2018-11-28T19:15:10.930Z,24.10
2018-11-28T19:17:38.361Z,24.07
2018-11-28T19:20:07.666Z,27.47
2018-11-28T19:22:35.106Z,22.37
2018-11-28T19:25:03.048Z,25.17
2018-11-28T19:27:30.583Z,23.00
2018-11-28T19:29:57.973Z,24.80
2018-11-28T19:32:25.584Z,23.27
2018-11-28T19:34:53.023Z,26.80
2018-11-28T19:37:20.448Z,22.50
2018-11-28T19:39:47.828Z,23.50
2018-11-28T19:42:15.414Z,25.13
2018-11-28T19:44:42.990Z,24.03
2018-11-28T19:47:10.523Z,25.00
2018-11-28T19:49:38.160Z,25.33
2018-11-28T19:52:05.651Z,21.63
2018-11-28T19:54:33.308Z,27.10
2018-11-28T19:57:00.927Z,27.67
2018-11-28T19:59:28.298Z,26.63
2018-11-28T20:01:55.667Z,26.40
2018-11-28T20:04:23.287Z,30.07
2018-11-28T20:06:50.669Z,25.53
2018-11-28T20:09:21.860Z,25.83
2018-11-28T20:14:17.807Z,30.97
2018-11-28T20:16:45.226Z,26.40
2018-11-28T20:19:17.495Z,27.40
2018-11-28T20:21:40.222Z,26.20
2018-11-28T20:24:07.876Z,28.20
2018-11-28T20:26:35.319Z,24.43
2018-11-28T20:29:02.740Z,31.80
2018-11-28T20:31:30.120Z,30.47
2018-11-28T20:33:57.466Z,28.30
2018-11-28T20:36:24.881Z,30.30
2018-11-28T20:38:52.338Z,33.53
2018-11-28T20:41:19.832Z,27.40
2018-11-28T20:43:47.268Z,28.67
2018-11-28T20:46:14.705Z,25.70
2018-11-28T20:48:42.213Z,26.53
2018-11-28T20:51:09.616Z,27.77
2018-11-28T20:53:36.949Z,25.80
2018-11-28T20:56:04.396Z,25.80
2018-11-28T20:58:31.785Z,24.87
2018-11-28T21:00:59.137Z,25.10
2018-11-28T21:03:26.562Z,27.70
2018-11-28T21:05:54.034Z,21.30
2018-11-28T21:08:21.458Z,24.60
2018-11-28T21:10:48.894Z,20.40
2018-11-28T21:13:16.222Z,23.27
2018-11-28T21:15:44.680Z,20.73
2018-11-28T21:18:12.151Z,25.93
2018-11-28T21:20:40.365Z,23.40
2018-11-28T21:23:08.652Z,21.83
2018-11-28T21:25:36.264Z,23.17
2018-11-28T21:28:03.740Z,20.67
2018-11-28T21:30:31.120Z,23.03
2018-11-28T21:32:58.578Z,21.57
2018-11-28T21:35:27.916Z,19.20
2018-11-28T21:37:55.271Z,20.97
2018-11-28T21:40:22.701Z,24.40
2018-11-28T21:42:50.102Z,23.53
2018-11-28T21:45:18.061Z,23.30
2018-11-28T21:47:45.502Z,20.17
2018-11-28T21:50:14.463Z,22.63
2018-11-28T21:52:41.811Z,24.40
2018-11-28T21:55:09.860Z,21.43
2018-11-28T21:57:37.209Z,21.77
2018-11-28T22:00:06.524Z,23.13
2018-11-28T22:02:33.897Z,21.63
2018-11-28T22:05:01.427Z,20.80
2018-11-28T22:07:30.013Z,24.93
2018-11-28T22:09:57.484Z,23.63
2018-11-28T22:12:26.399Z,24.97
2018-11-28T22:14:56.461Z,21.20
2018-11-28T22:17:23.833Z,22.20
2018-11-28T22:19:51.186Z,28.13
2018-11-28T22:22:19.514Z,24.30
2018-11-28T22:24:46.931Z,21.77
2018-11-28T22:27:14.367Z,22.80
2018-11-28T22:29:41.762Z,20.27
2018-11-28T22:32:09.732Z,23.27
2018-11-28T22:34:37.163Z,20.43
2018-11-28T22:37:04.543Z,21.90
2018-11-28T22:39:31.824Z,22.00
2018-11-28T22:41:59.436Z,20.17
2018-11-28T22:44:26.830Z,22.80
2018-11-28T22:46:54.769Z,19.97
2018-11-28T22:49:22.100Z,19.53
2018-11-28T22:51:50.241Z,19.33
2018-11-28T22:54:17.660Z,21.37
2018-11-28T22:56:45.049Z,18.80
2018-11-28T22:59:12.385Z,23.30
2018-11-28T23:01:45.351Z,28.33
2018-11-28T23:04:14.664Z,22.80
2018-11-28T23:06:42.084Z,23.53
2018-11-28T23:09:09.548Z,22.00
2018-11-28T23:11:37.162Z,21.60
2018-11-28T23:14:04.487Z,19.90
2018-11-28T23:16:31.880Z,19.13
2018-11-28T23:18:59.221Z,21.80
2018-11-28T23:21:26.596Z,19.33
2018-11-28T23:23:54.202Z,20.47
2018-11-28T23:26:21.554Z,21.20
2018-11-28T23:28:48.888Z,20.90
2018-11-28T23:31:16.266Z,21.90
2018-11-28T23:33:43.996Z,38.20
2018-11-28T23:36:11.324Z,19.70
2018-11-28T23:38:38.656Z,21.20
2018-11-28T23:41:05.996Z,21.10
2018-11-28T23:43:33.386Z,19.40
2018-11-28T23:46:00.783Z,20.07
2018-11-28T23:48:28.125Z,21.33
2018-11-28T23:50:55.477Z,20.40
2018-11-28T23:53:22.926Z,22.13
2018-11-28T23:55:50.341Z,19.50
2018-11-28T23:58:17.711Z,20.17
